DK-0033 weather

Bjedstrup Airstrip
Bjedstrup, Denmark

Public forecast

Using degrees Celsius for public forecast. Weather courtesy of forecast.io.

METAR (pilot weather report)

Closest report is Karup Airport, 28.3 nm (52.4 km) WNW. Retrieved 2019/05/26 10:20 UTC (25 minutes ago):

EKKA 261020Z AUTO 27014KT 9999 SCT026/// 14/07 Q1005

TAF (pilot weather forecast)

Closest forecast is Karup Airport, 28.3 nm (52.4 km) WNW. Retrieved 2019/05/26 09:31 UTC (1 hour ago):

TAF EKKA 260823Z 2609/2709 25010KT 9999 BKN014 BECMG 2609/2611 BKN020 TEMPO 2609/2615 27012G22KT BECMG 2618/2620 VRB04KT BECMG 2620/2623 4000 -RADZ BKN005 TEMPO 2623/2707 2000 -RADZ BR BKN002 BECMG 2707/2709 24010KT 9999 NSW BKN015